sensor_id;sensor_type;location;lat;lon;timestamp;pressure;altitude;pressure_sealevel;temperature;humidity
52137;BME280;69622;49.570;10.986;2024-02-15T00:02:52;98871.94;;;8.68;100.00
52137;BME280;69622;49.570;10.986;2024-02-15T00:06:11;98869.78;;;8.61;100.00
52137;BME280;69622;49.570;10.986;2024-02-15T00:09:13;98875.28;;;8.85;100.00
52137;BME280;69622;49.570;10.986;2024-02-15T00:12:14;98860.28;;;8.46;100.00
52137;BME280;69622;49.570;10.986;2024-02-15T00:15:16;98867.19;;;8.61;100.00
52137;BME280;69622;49.570;10.986;2024-02-15T00:18:18;98870.63;;;8.76;100.00
52137;BME280;69622;49.570;10.986;2024-02-15T00:21:20;98867.28;;;8.59;100.00
52137;BME280;69622;49.570;10.986;2024-02-15T00:24:22;98862.38;;;8.55;100.00
52137;BME280;69622;49.570;10.986;2024-02-15T00:27:25;98868.88;;;8.76;100.00
52137;BME280;69622;49.570;10.986;2024-02-15T00:30:26;98859.97;;;8.66;100.00
52137;BME280;69622;49.570;10.986;2024-02-15T00:33:28;98857.06;;;8.42;100.00
52137;BME280;69622;49.570;10.986;2024-02-15T00:36:30;98863.25;;;8.39;100.00
52137;BME280;69622;49.570;10.986;2024-02-15T00:39:33;98862.69;;;8.19;100.00
52137;BME280;69622;49.570;10.986;2024-02-15T00:42:35;98861.47;;;8.84;100.00
52137;BME280;69622;49.570;10.986;2024-02-15T00:45:37;98859.88;;;8.53;100.00
52137;BME280;69622;49.570;10.986;2024-02-15T00:48:38;98855.53;;;8.68;100.00
52137;BME280;69622;49.570;10.986;2024-02-15T00:51:42;98858.03;;;8.69;100.00
52137;BME280;69622;49.570;10.986;2024-02-15T00:54:45;98854.47;;;8.42;100.00
52137;BME280;69622;49.570;10.986;2024-02-15T00:57:46;98860.16;;;8.77;100.00
52137;BME280;69622;49.570;10.986;2024-02-15T01:00:48;98860.16;;;8.77;100.00
52137;BME280;69622;49.570;10.986;2024-02-15T01:03:50;98860.94;;;8.49;100.00
52137;BME280;69622;49.570;10.986;2024-02-15T01:06:51;98850.94;;;8.43;100.00
52137;BME280;69622;49.570;10.986;2024-02-15T01:09:54;98855.03;;;8.47;100.00
52137;BME280;69622;49.570;10.986;2024-02-15T01:12:55;98851.72;;;8.59;100.00
52137;BME280;69622;49.570;10.986;2024-02-15T01:15:57;98860.66;;;8.39;100.00
52137;BME280;69622;49.570;10.986;2024-02-15T01:18:58;98862.38;;;8.55;100.00
52137;BME280;69622;49.570;10.986;2024-02-15T01:22:00;98864.13;;;8.54;100.00
52137;BME280;69622;49.570;10.986;2024-02-15T01:25:02;98852.38;;;8.63;100.00
52137;BME280;69622;49.570;10.986;2024-02-15T01:28:04;98854.22;;;8.61;100.00
52137;BME280;69622;49.570;10.986;2024-02-15T01:31:05;98857.28;;;8.82;100.00
52137;BME280;69622;49.570;10.986;2024-02-15T01:34:08;98851.25;;;8.67;100.00
52137;BME280;69622;49.570;10.986;2024-02-15T01:37:10;98856.69;;;8.48;100.00
52137;BME280;69622;49.570;10.986;2024-02-15T01:40:12;98851.16;;;8.54;100.00
52137;BME280;69622;49.570;10.986;2024-02-15T01:43:16;98846.84;;;8.69;100.00
52137;BME280;69622;49.570;10.986;2024-02-15T01:46:19;98848.09;;;8.62;100.00
52137;BME280;69622;49.570;10.986;2024-02-15T01:49:22;98850.69;;;8.62;100.00
52137;BME280;69622;49.570;10.986;2024-02-15T01:52:24;98841.81;;;8.66;100.00
52137;BME280;69622;49.570;10.986;2024-02-15T01:55:25;98836.81;;;8.63;100.00
52137;BME280;69622;49.570;10.986;2024-02-15T01:58:27;98830.69;;;8.64;100.00
52137;BME280;69622;49.570;10.986;2024-02-15T02:01:33;98835.25;;;8.60;100.00
52137;BME280;69622;49.570;10.986;2024-02-15T02:04:34;98831.63;;;8.63;100.00
52137;BME280;69622;49.570;10.986;2024-02-15T02:07:37;98833.19;;;8.65;100.00
52137;BME280;69622;49.570;10.986;2024-02-15T02:10:39;98824.59;;;8.79;100.00
52137;BME280;69622;49.570;10.986;2024-02-15T02:13:41;98828.09;;;8.64;100.00
52137;BME280;69622;49.570;10.986;2024-02-15T02:16:42;98828.59;;;8.85;100.00
52137;BME280;69622;49.570;10.986;2024-02-15T02:19:44;98835.63;;;8.54;100.00
52137;BME280;69622;49.570;10.986;2024-02-15T02:22:48;98837.47;;;8.52;100.00
52137;BME280;69622;49.570;10.986;2024-02-15T02:25:52;98838.22;;;8.54;100.00
52137;BME280;69622;49.570;10.986;2024-02-15T02:28:54;98836.06;;;8.61;100.00
52137;BME280;69622;49.570;10.986;2024-02-15T02:31:56;98836.06;;;8.61;100.00
52137;BME280;69622;49.570;10.986;2024-02-15T02:34:58;98834.88;;;8.52;100.00
52137;BME280;69622;49.570;10.986;2024-02-15T02:37:59;98838.38;;;8.51;100.00
52137;BME280;69622;49.570;10.986;2024-02-15T02:41:01;98841.25;;;8.61;100.00
52137;BME280;69622;49.570;10.986;2024-02-15T02:44:02;98841.72;;;8.53;100.00
52137;BME280;69622;49.570;10.986;2024-02-15T02:47:04;98849.69;;;8.64;100.00
52137;BME280;69622;49.570;10.986;2024-02-15T02:50:06;98833.56;;;8.59;100.00
52137;BME280;69622;49.570;10.986;2024-02-15T02:53:09;98838.13;;;8.56;100.00
52137;BME280;69622;49.570;10.986;2024-02-15T02:56:12;98836.53;;;8.53;100.00
52137;BME280;69622;49.570;10.986;2024-02-15T02:59:14;98843.19;;;8.57;100.00
52137;BME280;69622;49.570;10.986;2024-02-15T03:02:17;98837.19;;;8.57;100.00
52137;BME280;69622;49.570;10.986;2024-02-15T03:05:19;98833.56;;;8.59;100.00
52137;BME280;69622;49.570;10.986;2024-02-15T03:08:22;98835.16;;;8.62;100.00
52137;BME280;69622;49.570;10.986;2024-02-15T03:11:25;98833.56;;;8.59;100.00
52137;BME280;69622;49.570;10.986;2024-02-15T03:14:26;98837.00;;;8.60;100.00
52137;BME280;69622;49.570;10.986;2024-02-15T03:17:28;98830.06;;;8.60;100.00
52137;BME280;69622;49.570;10.986;2024-02-15T03:20:33;98834.22;;;8.63;100.00
52137;BME280;69622;49.570;10.986;2024-02-15T03:23:35;98824.25;;;8.71;100.00
52137;BME280;69622;49.570;10.986;2024-02-15T03:26:36;98829.31;;;8.58;100.00
52137;BME280;69622;49.570;10.986;2024-02-15T03:29:41;98830.97;;;8.59;100.00
52137;BME280;69622;49.570;10.986;2024-02-15T03:32:43;98823.56;;;8.67;100.00
52137;BME280;69622;49.570;10.986;2024-02-15T03:35:44;98834.78;;;8.54;100.00
52137;BME280;69622;49.570;10.986;2024-02-15T03:38:46;98831.81;;;8.60;100.00
52137;BME280;69622;49.570;10.986;2024-02-15T03:41:48;98834.16;;;8.34;100.00
52137;BME280;69622;49.570;10.986;2024-02-15T03:44:49;98833.56;;;8.29;100.00
52137;BME280;69622;49.570;10.986;2024-02-15T03:47:52;98828.06;;;8.35;100.00
52137;BME280;69622;49.570;10.986;2024-02-15T03:50:54;98825.69;;;8.47;100.00
52137;BME280;69622;49.570;10.986;2024-02-15T03:53:55;98832.47;;;8.33;100.00
52137;BME280;69622;49.570;10.986;2024-02-15T03:56:57;98829.84;;;8.19;100.00
52137;BME280;69622;49.570;10.986;2024-02-15T03:59:59;98834.47;;;8.14;100.00
52137;BME280;69622;49.570;10.986;2024-02-15T04:03:01;98831.47;;;8.36;100.00
52137;BME280;69622;49.570;10.986;2024-02-15T04:06:02;98838.19;;;8.24;100.00
52137;BME280;69622;49.570;10.986;2024-02-15T04:09:04;98842.28;;;8.28;100.00
52137;BME280;69622;49.570;10.986;2024-02-15T04:12:06;98835.94;;;8.34;100.00
52137;BME280;69622;49.570;10.986;2024-02-15T04:15:08;98842.88;;;8.18;100.00
52137;BME280;69622;49.570;10.986;2024-02-15T04:18:14;98839.34;;;8.34;100.00
52137;BME280;69622;49.570;10.986;2024-02-15T04:21:16;98832.00;;;8.27;100.00
52137;BME280;69622;49.570;10.986;2024-02-15T04:24:21;98838.44;;;8.05;100.00
52137;BME280;69622;49.570;10.986;2024-02-15T04:27:23;98841.41;;;8.14;100.00
52137;BME280;69622;49.570;10.986;2024-02-15T04:30:24;98839.91;;;8.09;100.00
52137;BME280;69622;49.570;10.986;2024-02-15T04:33:26;98840.56;;;8.13;100.00
52137;BME280;69622;49.570;10.986;2024-02-15T04:36:27;98845.75;;;8.13;100.00
52137;BME280;69622;49.570;10.986;2024-02-15T04:39:35;98844.06;;;8.12;100.00
52137;BME280;69622;49.570;10.986;2024-02-15T04:42:37;98845.75;;;8.13;100.00
52137;BME280;69622;49.570;10.986;2024-02-15T04:45:41;98838.81;;;8.14;100.00
52137;BME280;69622;49.570;10.986;2024-02-15T04:48:42;98843.25;;;8.11;100.00
52137;BME280;69622;49.570;10.986;2024-02-15T04:51:45;98838.16;;;8.10;100.00
52137;BME280;69622;49.570;10.986;2024-02-15T04:54:46;98835.84;;;8.05;100.00
52137;BME280;69622;49.570;10.986;2024-02-15T04:57:47;98840.25;;;8.03;100.00
52137;BME280;69622;49.570;10.986;2024-02-15T05:00:50;98830.06;;;8.00;100.00
52137;BME280;69622;49.570;10.986;2024-02-15T05:03:54;98828.66;;;7.95;100.00
52137;BME280;69622;49.570;10.986;2024-02-15T05:06:57;98839.03;;;7.95;100.00
52137;BME280;69622;49.570;10.986;2024-02-15T05:09:58;98835.03;;;7.89;100.00
52137;BME280;69622;49.570;10.986;2024-02-15T05:12:59;98833.69;;;7.82;100.00
52137;BME280;69622;49.570;10.986;2024-02-15T05:16:02;98835.19;;;7.86;100.00
52137;BME280;69622;49.570;10.986;2024-02-15T05:19:04;98829.59;;;7.94;100.00
52137;BME280;69622;49.570;10.986;2024-02-15T05:22:06;98835.44;;;7.81;100.00
52137;BME280;69622;49.570;10.986;2024-02-15T05:25:08;98835.63;;;7.78;100.00
52137;BME280;69622;49.570;10.986;2024-02-15T05:28:10;98842.38;;;7.81;100.00
52137;BME280;69622;49.570;10.986;2024-02-15T05:31:17;98846.19;;;8.05;100.00
52137;BME280;69622;49.570;10.986;2024-02-15T05:34:19;98840.47;;;7.69;100.00
52137;BME280;69622;49.570;10.986;2024-02-15T05:37:20;98842.56;;;7.78;100.00
52137;BME280;69622;49.570;10.986;2024-02-15T05:40:22;98847.81;;;7.76;100.00
52137;BME280;69622;49.570;10.986;2024-02-15T05:43:24;98843.06;;;7.69;100.00
52137;BME280;69622;49.570;10.986;2024-02-15T05:46:26;98839.69;;;7.98;100.00
52137;BME280;69622;49.570;10.986;2024-02-15T05:49:29;98838.22;;;7.78;100.00
52137;BME280;69622;49.570;10.986;2024-02-15T05:52:30;98835.03;;;7.89;100.00
52137;BME280;69622;49.570;10.986;2024-02-15T05:55:32;98846.16;;;7.75;100.00
52137;BME280;69622;49.570;10.986;2024-02-15T05:58:36;98839.38;;;7.73;100.00
52137;BME280;69622;49.570;10.986;2024-02-15T06:01:37;98850.72;;;7.70;100.00
52137;BME280;69622;49.570;10.986;2024-02-15T06:04:41;98841.47;;;7.66;100.00
52137;BME280;69622;49.570;10.986;2024-02-15T06:07:43;98848.91;;;7.72;100.00
52137;BME280;69622;49.570;10.986;2024-02-15T06:10:45;98842.81;;;7.73;100.00
52137;BME280;69622;49.570;10.986;2024-02-15T06:13:48;98848.84;;;7.74;100.00
52137;BME280;69622;49.570;10.986;2024-02-15T06:16:49;98842.56;;;7.78;100.00
52137;BME280;69622;49.570;10.986;2024-02-15T06:19:52;98847.63;;;7.95;100.00
52137;BME280;69622;49.570;10.986;2024-02-15T06:22:54;98859.88;;;8.07;100.00
52137;BME280;69622;49.570;10.986;2024-02-15T06:25:57;98856.25;;;7.80;100.00
52137;BME280;69622;49.570;10.986;2024-02-15T06:29:03;98855.97;;;8.00;100.00
52137;BME280;69622;49.570;10.986;2024-02-15T06:32:31;98867.97;;;8.01;100.00
52137;BME280;69622;49.570;10.986;2024-02-15T06:35:51;98871.13;;;7.76;100.00
52137;BME280;69622;49.570;10.986;2024-02-15T06:39:11;98864.41;;;7.72;100.00
52137;BME280;69622;49.570;10.986;2024-02-15T06:42:31;98870.50;;;7.87;100.00
52137;BME280;69622;49.570;10.986;2024-02-15T06:45:35;98866.16;;;7.88;100.00
52137;BME280;69622;49.570;10.986;2024-02-15T06:48:42;98862.75;;;7.87;100.00
52137;BME280;69622;49.570;10.986;2024-02-15T06:51:49;98864.91;;;7.95;100.00
52137;BME280;69622;49.570;10.986;2024-02-15T06:54:50;98870.66;;;8.00;100.00
52137;BME280;69622;49.570;10.986;2024-02-15T06:57:53;98873.16;;;8.01;100.00
52137;BME280;69622;49.570;10.986;2024-02-15T07:00:56;98874.91;;;8.01;100.00
52137;BME280;69622;49.570;10.986;2024-02-15T07:03:58;98873.59;;;8.09;100.00
52137;BME280;69622;49.570;10.986;2024-02-15T07:07:00;98868.69;;;8.19;100.00
52137;BME280;69622;49.570;10.986;2024-02-15T07:10:03;98861.34;;;8.27;100.00
52137;BME280;69622;49.570;10.986;2024-02-15T07:13:05;98860.38;;;8.44;100.00
52137;BME280;69622;49.570;10.986;2024-02-15T07:16:08;98861.91;;;8.32;100.00
52137;BME280;69622;49.570;10.986;2024-02-15T07:19:09;98864.84;;;8.42;100.00
52137;BME280;69622;49.570;10.986;2024-02-15T07:22:11;98864.47;;;8.48;100.00
52137;BME280;69622;49.570;10.986;2024-02-15T07:25:13;98861.91;;;8.62;100.00
52137;BME280;69622;49.570;10.986;2024-02-15T07:28:15;98861.31;;;8.43;100.00
52137;BME280;69622;49.570;10.986;2024-02-15T07:31:17;98862.91;;;8.60;100.00
52137;BME280;69622;49.570;10.986;2024-02-15T07:34:18;98859.03;;;8.67;100.00
52137;BME280;69622;49.570;10.986;2024-02-15T07:37:20;98859.03;;;8.81;100.00
52137;BME280;69622;49.570;10.986;2024-02-15T07:40:25;98867.81;;;8.64;100.00
52137;BME280;69622;49.570;10.986;2024-02-15T07:43:29;98865.97;;;8.52;100.00
52137;BME280;69622;49.570;10.986;2024-02-15T07:46:31;98871.47;;;8.76;100.00
52137;BME280;69622;49.570;10.986;2024-02-15T07:49:32;98866.00;;;8.81;100.00
52137;BME280;69622;49.570;10.986;2024-02-15T07:52:35;98871.19;;;8.81;100.00
52137;BME280;69622;49.570;10.986;2024-02-15T07:55:37;98867.38;;;8.72;100.00
52137;BME280;69622;49.570;10.986;2024-02-15T07:58:43;98872.28;;;8.77;100.00
52137;BME280;69622;49.570;10.986;2024-02-15T08:01:54;98862.38;;;8.97;100.00
52137;BME280;69622;49.570;10.986;2024-02-15T08:04:56;98870.38;;;8.94;100.00
52137;BME280;69622;49.570;10.986;2024-02-15T08:07:58;98857.94;;;9.14;100.00
52137;BME280;69622;49.570;10.986;2024-02-15T08:11:01;98854.25;;;9.04;100.00
52137;BME280;69622;49.570;10.986;2024-02-15T08:14:03;98846.38;;;9.05;100.00
52137;BME280;69622;49.570;10.986;2024-02-15T08:17:04;98857.38;;;8.80;100.00
52137;BME280;69622;49.570;10.986;2024-02-15T08:20:15;98855.28;;;9.15;100.00
52137;BME280;69622;49.570;10.986;2024-02-15T08:23:22;98847.69;;;8.84;100.00
52137;BME280;69622;49.570;10.986;2024-02-15T08:26:24;98842.47;;;9.12;100.00
52137;BME280;69622;49.570;10.986;2024-02-15T08:29:25;98840.56;;;9.02;100.00
52137;BME280;69622;49.570;10.986;2024-02-15T08:32:27;98835.63;;;9.11;100.00
52137;BME280;69622;49.570;10.986;2024-02-15T08:35:31;98830.81;;;9.19;100.00
52137;BME280;69622;49.570;10.986;2024-02-15T08:38:37;98826.91;;;9.12;100.00
52137;BME280;69622;49.570;10.986;2024-02-15T08:41:38;98832.91;;;9.27;100.00
52137;BME280;69622;49.570;10.986;2024-02-15T08:44:40;98834.75;;;9.39;100.00
52137;BME280;69622;49.570;10.986;2024-02-15T08:47:43;98829.16;;;9.45;100.00
52137;BME280;69622;49.570;10.986;2024-02-15T08:50:45;98836.53;;;9.24;100.00
52137;BME280;69622;49.570;10.986;2024-02-15T08:53:47;98834.03;;;9.37;100.00
52137;BME280;69622;49.570;10.986;2024-02-15T08:56:49;98825.63;;;9.46;100.00
52137;BME280;69622;49.570;10.986;2024-02-15T08:59:52;98826.63;;;9.58;100.00
52137;BME280;69622;49.570;10.986;2024-02-15T09:02:53;98823.38;;;9.69;100.00
52137;BME280;69622;49.570;10.986;2024-02-15T09:05:55;98830.06;;;9.58;100.00
52137;BME280;69622;49.570;10.986;2024-02-15T09:08:56;98823.31;;;9.56;100.00
52137;BME280;69622;49.570;10.986;2024-02-15T09:12:01;98828.16;;;9.48;100.00
52137;BME280;69622;49.570;10.986;2024-02-15T09:15:03;98817.81;;;9.60;100.00
52137;BME280;69622;49.570;10.986;2024-02-15T09:18:05;98823.66;;;9.91;100.00
52137;BME280;69622;49.570;10.986;2024-02-15T09:21:11;98821.75;;;9.80;100.00
52137;BME280;69622;49.570;10.986;2024-02-15T09:24:12;98822.28;;;9.85;100.00
52137;BME280;69622;49.570;10.986;2024-02-15T09:27:14;98814.66;;;10.09;100.00
52137;BME280;69622;49.570;10.986;2024-02-15T09:30:16;98812.19;;;10.20;100.00
52137;BME280;69622;49.570;10.986;2024-02-15T09:33:21;98808.97;;;10.17;100.00
52137;BME280;69622;49.570;10.986;2024-02-15T09:36:23;98813.00;;;10.61;100.00
52137;BME280;69622;49.570;10.986;2024-02-15T09:39:24;98814.75;;;10.47;100.00
52137;BME280;69622;49.570;10.986;2024-02-15T09:42:26;98811.34;;;10.60;100.00
52137;BME280;69622;49.570;10.986;2024-02-15T09:45:27;98809.25;;;10.52;100.00
52137;BME280;69622;49.570;10.986;2024-02-15T09:48:29;98802.69;;;10.72;100.00
52137;BME280;69622;49.570;10.986;2024-02-15T09:51:33;98800.72;;;10.63;100.00
52137;BME280;69622;49.570;10.986;2024-02-15T09:54:35;98807.03;;;11.09;100.00
52137;BME280;69622;49.570;10.986;2024-02-15T09:57:37;98802.56;;;10.86;100.00
52137;BME280;69622;49.570;10.986;2024-02-15T10:00:42;98799.13;;;10.86;100.00
52137;BME280;69622;49.570;10.986;2024-02-15T10:03:44;98795.81;;;10.96;100.00
52137;BME280;69622;49.570;10.986;2024-02-15T10:06:47;98790.97;;;11.16;100.00
52137;BME280;69622;49.570;10.986;2024-02-15T10:09:49;98785.97;;;11.13;100.00
52137;BME280;69622;49.570;10.986;2024-02-15T10:12:52;98789.03;;;11.06;100.00
52137;BME280;69622;49.570;10.986;2024-02-15T10:15:56;98783.34;;;10.76;100.00
52137;BME280;69622;49.570;10.986;2024-02-15T10:19:10;98790.47;;;11.10;100.00
52137;BME280;69622;49.570;10.986;2024-02-15T10:22:12;98795.06;;;11.07;100.00
52137;BME280;69622;49.570;10.986;2024-02-15T10:25:15;98788.44;;;11.27;100.00
52137;BME280;69622;49.570;10.986;2024-02-15T10:28:21;98784.31;;;11.12;100.00
52137;BME280;69622;49.570;10.986;2024-02-15T10:31:24;98781.56;;;11.38;100.00
52137;BME280;69622;49.570;10.986;2024-02-15T10:34:27;98768.31;;;11.42;100.00
52137;BME280;69622;49.570;10.986;2024-02-15T10:37:32;98765.91;;;11.62;100.00
52137;BME280;69622;49.570;10.986;2024-02-15T10:40:33;98758.34;;;11.59;100.00
52137;BME280;69622;49.570;10.986;2024-02-15T10:43:36;98754.22;;;11.44;100.00
52137;BME280;69622;49.570;10.986;2024-02-15T10:46:41;98745.69;;;11.42;100.00
52137;BME280;69622;49.570;10.986;2024-02-15T10:49:43;98741.44;;;11.41;100.00
52137;BME280;69622;49.570;10.986;2024-02-15T10:52:56;98740.56;;;11.53;100.00
52137;BME280;69622;49.570;10.986;2024-02-15T10:56:26;98728.25;;;11.79;100.00
52137;BME280;69622;49.570;10.986;2024-02-15T10:59:32;98729.38;;;11.75;100.00
52137;BME280;69622;49.570;10.986;2024-02-15T11:02:52;98725.09;;;11.98;100.00
52137;BME280;69622;49.570;10.986;2024-02-15T11:05:56;98718.63;;;12.04;100.00
52137;BME280;69622;49.570;10.986;2024-02-15T11:09:00;98719.69;;;12.01;100.00
52137;BME280;69622;49.570;10.986;2024-02-15T11:12:02;98709.81;;;11.93;100.00
52137;BME280;69622;49.570;10.986;2024-02-15T11:15:04;98707.59;;;12.11;100.00
52137;BME280;69622;49.570;10.986;2024-02-15T11:18:08;98713.53;;;12.13;100.00
52137;BME280;69622;49.570;10.986;2024-02-15T11:21:10;98697.44;;;12.19;100.00
52137;BME280;69622;49.570;10.986;2024-02-15T11:24:27;98705.00;;;12.11;100.00
52137;BME280;69622;49.570;10.986;2024-02-15T11:27:30;98700.38;;;12.26;100.00
52137;BME280;69622;49.570;10.986;2024-02-15T11:30:33;98701.31;;;12.03;100.00
52137;BME280;69622;49.570;10.986;2024-02-15T11:33:36;98705.53;;;12.50;100.00
52137;BME280;69622;49.570;10.986;2024-02-15T11:36:38;98698.53;;;12.50;100.00
52137;BME280;69622;49.570;10.986;2024-02-15T11:39:44;98697.56;;;12.51;100.00
52137;BME280;69622;49.570;10.986;2024-02-15T11:42:47;98692.81;;;12.45;100.00
52137;BME280;69622;49.570;10.986;2024-02-15T11:45:57;98685.81;;;12.23;100.00
52137;BME280;69622;49.570;10.986;2024-02-15T11:49:00;98686.88;;;12.77;100.00
52137;BME280;69622;49.570;10.986;2024-02-15T11:52:11;98672.28;;;12.74;100.00
52137;BME280;69622;49.570;10.986;2024-02-15T11:55:13;98670.63;;;12.73;100.00
52137;BME280;69622;49.570;10.986;2024-02-15T11:58:16;98673.97;;;12.30;100.00
52137;BME280;69622;49.570;10.986;2024-02-15T12:01:23;98666.38;;;12.72;100.00
52137;BME280;69622;49.570;10.986;2024-02-15T12:04:44;98655.00;;;13.16;100.00
52137;BME280;69622;49.570;10.986;2024-02-15T12:08:05;98653.75;;;13.00;100.00
52137;BME280;69622;49.570;10.986;2024-02-15T12:11:25;98660.06;;;12.75;100.00
52137;BME280;69622;49.570;10.986;2024-02-15T12:14:45;98648.59;;;13.21;100.00
52137;BME280;69622;49.570;10.986;2024-02-15T12:18:15;98651.09;;;13.22;100.00
52137;BME280;69622;49.570;10.986;2024-02-15T12:21:37;98642.91;;;13.27;100.00
52137;BME280;69622;49.570;10.986;2024-02-15T12:24:42;98636.47;;;13.31;100.00
52137;BME280;69622;49.570;10.986;2024-02-15T12:27:45;98631.16;;;13.74;100.00
52137;BME280;69622;49.570;10.986;2024-02-15T12:30:54;98631.66;;;13.68;100.00
52137;BME280;69622;49.570;10.986;2024-02-15T12:34:03;98620.41;;;13.35;100.00
52137;BME280;69622;49.570;10.986;2024-02-15T12:37:08;98609.47;;;13.62;100.00
52137;BME280;69622;49.570;10.986;2024-02-15T12:40:12;98604.19;;;13.53;100.00
52137;BME280;69622;49.570;10.986;2024-02-15T12:43:17;98594.56;;;13.53;100.00
52137;BME280;69622;49.570;10.986;2024-02-15T12:46:19;98598.63;;;13.67;100.00
52137;BME280;69622;49.570;10.986;2024-02-15T12:52:38;98590.19;;;13.84;100.00
52137;BME280;69622;49.570;10.986;2024-02-15T12:55:40;98593.00;;;14.23;100.00
52137;BME280;69622;49.570;10.986;2024-02-15T12:58:42;98595.41;;;14.05;100.00
52137;BME280;69622;49.570;10.986;2024-02-15T13:01:46;98587.66;;;13.94;100.00
52137;BME280;69622;49.570;10.986;2024-02-15T13:04:50;98586.97;;;14.01;100.00
52137;BME280;69622;49.570;10.986;2024-02-15T13:07:53;98572.09;;;13.92;100.00
52137;BME280;69622;49.570;10.986;2024-02-15T13:10:59;98578.31;;;14.01;100.00
52137;BME280;69622;49.570;10.986;2024-02-15T13:14:00;98575.66;;;13.91;100.00
52137;BME280;69622;49.570;10.986;2024-02-15T13:17:02;98569.28;;;13.84;100.00
52137;BME280;69622;49.570;10.986;2024-02-15T13:20:04;98566.41;;;13.87;100.00
52137;BME280;69622;49.570;10.986;2024-02-15T13:23:10;98556.22;;;13.84;100.00
52137;BME280;69622;49.570;10.986;2024-02-15T13:26:24;98565.09;;;13.93;100.00
52137;BME280;69622;49.570;10.986;2024-02-15T13:29:26;98556.06;;;13.76;100.00
52137;BME280;69622;49.570;10.986;2024-02-15T13:32:28;98560.13;;;13.69;100.00
52137;BME280;69622;49.570;10.986;2024-02-15T13:35:30;98558.19;;;13.92;100.00
52137;BME280;69622;49.570;10.986;2024-02-15T13:38:32;98548.50;;;13.73;100.00
52137;BME280;69622;49.570;10.986;2024-02-15T13:41:33;98545.97;;;14.02;100.00
52137;BME280;69622;49.570;10.986;2024-02-15T13:44:34;98547.75;;;14.01;100.00
52137;BME280;69622;49.570;10.986;2024-02-15T13:47:36;98529.38;;;14.13;100.00
52137;BME280;69622;49.570;10.986;2024-02-15T13:50:38;98534.78;;;14.21;100.00
52137;BME280;69622;49.570;10.986;2024-02-15T13:53:41;98525.25;;;13.79;100.00
52137;BME280;69622;49.570;10.986;2024-02-15T13:56:44;98517.53;;;14.08;100.00
52137;BME280;69622;49.570;10.986;2024-02-15T13:59:46;98512.34;;;13.88;100.00
52137;BME280;69622;49.570;10.986;2024-02-15T14:02:52;98514.09;;;14.08;100.00
52137;BME280;69622;49.570;10.986;2024-02-15T14:05:54;98512.31;;;14.08;100.00
52137;BME280;69622;49.570;10.986;2024-02-15T14:08:55;98513.97;;;14.19;100.00
52137;BME280;69622;49.570;10.986;2024-02-15T14:11:57;98508.47;;;14.13;100.00
52137;BME280;69622;49.570;10.986;2024-02-15T14:14:59;98510.34;;;14.01;100.00
52137;BME280;69622;49.570;10.986;2024-02-15T14:18:01;98508.81;;;13.98;100.00
52137;BME280;69622;49.570;10.986;2024-02-15T14:21:03;98505.66;;;13.95;100.00
52137;BME280;69622;49.570;10.986;2024-02-15T14:24:05;98500.25;;;14.27;100.00
52137;BME280;69622;49.570;10.986;2024-02-15T14:27:08;98500.09;;;13.88;100.00
52137;BME280;69622;49.570;10.986;2024-02-15T14:30:11;98505.06;;;14.31;100.00
52137;BME280;69622;49.570;10.986;2024-02-15T14:33:31;98504.28;;;14.00;100.00
52137;BME280;69622;49.570;10.986;2024-02-15T14:36:36;98513.13;;;14.19;100.00
52137;BME280;69622;49.570;10.986;2024-02-15T14:39:37;98503.13;;;14.24;100.00
52137;BME280;69622;49.570;10.986;2024-02-15T14:42:39;98503.41;;;14.21;100.00
52137;BME280;69622;49.570;10.986;2024-02-15T14:45:57;98494.28;;;14.05;100.00
52137;BME280;69622;49.570;10.986;2024-02-15T14:48:59;98501.56;;;14.12;100.00
52137;BME280;69622;49.570;10.986;2024-02-15T14:52:01;98499.38;;;14.07;100.00
52137;BME280;69622;49.570;10.986;2024-02-15T14:55:05;98493.91;;;14.29;100.00
52137;BME280;69622;49.570;10.986;2024-02-15T14:58:09;98486.59;;;14.33;100.00
52137;BME280;69622;49.570;10.986;2024-02-15T15:01:13;98482.72;;;14.18;100.00
52137;BME280;69622;49.570;10.986;2024-02-15T15:04:15;98485.50;;;14.26;100.00
52137;BME280;69622;49.570;10.986;2024-02-15T15:07:16;98484.66;;;14.16;100.00
52137;BME280;69622;49.570;10.986;2024-02-15T15:10:36;98471.06;;;14.22;100.00
52137;BME280;69622;49.570;10.986;2024-02-15T15:13:56;98474.28;;;13.95;100.00
52137;BME280;69622;49.570;10.986;2024-02-15T15:16:59;98475.47;;;13.81;100.00
52137;BME280;69622;49.570;10.986;2024-02-15T15:20:04;98481.25;;;13.75;100.00
52137;BME280;69622;49.570;10.986;2024-02-15T15:23:10;98488.72;;;13.89;100.00
52137;BME280;69622;49.570;10.986;2024-02-15T15:26:21;98487.66;;;13.71;100.00
52137;BME280;69622;49.570;10.986;2024-02-15T15:29:23;98484.69;;;13.75;100.00
52137;BME280;69622;49.570;10.986;2024-02-15T15:32:24;98482.31;;;13.42;100.00
52137;BME280;69622;49.570;10.986;2024-02-15T15:35:27;98479.47;;;13.55;100.00
52137;BME280;69622;49.570;10.986;2024-02-15T15:38:34;98473.47;;;13.64;100.00
52137;BME280;69622;49.570;10.986;2024-02-15T15:41:35;98463.78;;;13.45;100.00
52137;BME280;69622;49.570;10.986;2024-02-15T15:44:38;98472.09;;;13.29;100.00
52137;BME280;69622;49.570;10.986;2024-02-15T15:47:41;98463.91;;;13.23;100.00
52137;BME280;69622;49.570;10.986;2024-02-15T15:50:43;98469.00;;;13.24;100.00
52137;BME280;69622;49.570;10.986;2024-02-15T15:53:45;98466.16;;;13.27;100.00
52137;BME280;69622;49.570;10.986;2024-02-15T15:56:48;98468.50;;;13.30;100.00
52137;BME280;69622;49.570;10.986;2024-02-15T15:59:52;98461.56;;;12.99;100.00